createdAt,value
2023-01-29T00:01:15.144Z,19.27
2023-01-29T00:03:42.882Z,19.67
2023-01-29T00:06:11.863Z,22.00
2023-01-29T00:08:41.031Z,18.27
2023-01-29T00:11:09.993Z,19.10
2023-01-29T00:13:37.747Z,21.33
2023-01-29T00:16:06.203Z,23.43
2023-01-29T00:18:33.800Z,22.98
2023-01-29T00:21:01.385Z,22.60
2023-01-29T00:23:29.089Z,19.73
2023-01-29T00:26:00.559Z,20.50
2023-01-29T00:28:28.150Z,21.20
2023-01-29T00:30:55.870Z,18.77
2023-01-29T00:33:23.570Z,19.83
2023-01-29T00:35:51.185Z,19.57
2023-01-29T00:38:18.821Z,21.23
2023-01-29T00:41:04.154Z,22.07
2023-01-29T00:43:50.799Z,21.57
2023-01-29T00:46:18.411Z,20.20
2023-01-29T00:48:46.071Z,21.60
2023-01-29T00:51:13.691Z,22.67
2023-01-29T00:53:41.313Z,22.53
2023-01-29T00:56:08.995Z,23.47
2023-01-29T00:58:37.975Z,23.83
2023-01-29T01:01:05.925Z,23.27
2023-01-29T01:03:35.146Z,23.15
2023-01-29T01:06:07.170Z,22.90
2023-01-29T01:09:01.087Z,22.53
2023-01-29T01:11:28.729Z,21.90
2023-01-29T01:14:02.007Z,22.10
2023-01-29T01:16:29.743Z,25.23
2023-01-29T01:18:57.413Z,21.57
2023-01-29T01:21:25.045Z,20.30
2023-01-29T01:23:53.633Z,21.03
2023-01-29T01:26:21.276Z,22.77
2023-01-29T01:28:49.060Z,19.83
2023-01-29T01:31:18.621Z,21.00
2023-01-29T01:33:46.335Z,21.97
2023-01-29T01:36:13.922Z,23.60
2023-01-29T01:38:45.261Z,22.37
2023-01-29T01:41:13.763Z,21.00
2023-01-29T01:43:49.748Z,22.73
2023-01-29T01:46:19.049Z,22.40
2023-01-29T01:48:50.903Z,18.20
2023-01-29T01:51:19.522Z,20.43
2023-01-29T01:53:55.207Z,19.88
2023-01-29T01:56:27.840Z,21.33
2023-01-29T01:58:57.703Z,19.50
2023-01-29T02:01:28.851Z,20.37
2023-01-29T02:04:20.190Z,18.97
2023-01-29T02:07:06.007Z,21.20
2023-01-29T02:09:39.457Z,19.77
2023-01-29T02:12:09.839Z,21.00
2023-01-29T02:14:40.150Z,21.93
2023-01-29T02:17:11.194Z,21.13
2023-01-29T02:19:47.916Z,19.47
2023-01-29T02:22:30.894Z,22.67
2023-01-29T02:25:22.733Z,20.90
2023-01-29T02:28:21.531Z,22.00
2023-01-29T02:30:57.593Z,23.33
2023-01-29T02:33:37.089Z,21.63
2023-01-29T02:36:15.142Z,20.73
2023-01-29T02:38:48.831Z,20.77
2023-01-29T02:41:20.536Z,20.80
2023-01-29T02:43:56.775Z,22.00
2023-01-29T02:46:31.920Z,21.80
2023-01-29T02:49:05.343Z,22.70
2023-01-29T02:51:38.656Z,19.93
2023-01-29T02:54:11.653Z,20.93
2023-01-29T02:56:47.569Z,20.73
2023-01-29T02:59:20.098Z,25.03
2023-01-29T03:01:51.114Z,23.37
2023-01-29T03:04:23.931Z,22.47
2023-01-29T03:06:58.089Z,23.30
2023-01-29T03:09:33.996Z,24.77
2023-01-29T03:12:19.887Z,24.27
2023-01-29T03:15:09.813Z,25.13
2023-01-29T03:17:42.182Z,23.73
2023-01-29T03:20:16.640Z,24.60
2023-01-29T03:22:50.401Z,26.97
2023-01-29T03:25:39.310Z,29.77
2023-01-29T03:28:26.212Z,29.77
2023-01-29T03:31:15.898Z,26.20
2023-01-29T03:33:49.340Z,31.10
2023-01-29T03:36:22.390Z,29.03
2023-01-29T03:38:50.107Z,32.57
2023-01-29T03:41:26.226Z,31.53
2023-01-29T03:44:05.565Z,28.93
2023-01-29T03:46:42.659Z,27.90
2023-01-29T03:49:18.484Z,34.03
2023-01-29T03:51:56.697Z,31.17
2023-01-29T03:54:30.955Z,30.45
2023-01-29T03:57:05.123Z,29.27
2023-01-29T03:59:41.390Z,30.67
2023-01-29T04:02:14.563Z,34.80
2023-01-29T04:04:46.176Z,32.10
2023-01-29T04:07:18.505Z,33.93
2023-01-29T04:09:51.531Z,35.13
2023-01-29T04:12:25.355Z,33.70
2023-01-29T04:14:55.305Z,33.27
2023-01-29T04:17:32.873Z,32.10
2023-01-29T04:20:01.535Z,33.77
2023-01-29T04:22:33.140Z,32.05
2023-01-29T04:25:02.668Z,36.33
2023-01-29T04:27:41.887Z,31.97
2023-01-29T04:30:30.152Z,36.07
2023-01-29T04:33:15.516Z,33.28
2023-01-29T04:35:54.233Z,33.27
2023-01-29T04:41:04.671Z,35.30
2023-01-29T04:43:45.556Z,34.00
2023-01-29T04:46:17.370Z,34.13
2023-01-29T04:49:01.205Z,32.57
2023-01-29T04:51:40.727Z,35.17
2023-01-29T04:54:13.723Z,34.27
2023-01-29T04:56:50.103Z,33.37
2023-01-29T04:59:23.750Z,35.97
2023-01-29T05:01:51.742Z,33.00
2023-01-29T05:04:22.465Z,33.33
2023-01-29T05:06:51.140Z,32.73
2023-01-29T05:09:19.309Z,33.70
2023-01-29T05:11:48.550Z,36.65
2023-01-29T05:14:20.678Z,35.43
2023-01-29T05:16:52.704Z,36.37
2023-01-29T05:19:21.624Z,34.63
2023-01-29T05:24:19.921Z,31.20
2023-01-29T05:27:07.366Z,33.93
2023-01-29T05:29:35.455Z,35.20
2023-01-29T05:32:03.708Z,32.60
2023-01-29T05:34:32.731Z,34.35
2023-01-29T05:37:00.407Z,32.43
2023-01-29T05:39:28.046Z,32.37
2023-01-29T05:41:55.664Z,30.67
2023-01-29T05:44:23.287Z,36.70
2023-01-29T05:46:51.198Z,33.63
2023-01-29T05:49:20.486Z,31.47
2023-01-29T05:51:49.502Z,31.80
2023-01-29T05:54:17.157Z,33.10
2023-01-29T05:56:44.809Z,37.23
2023-01-29T05:59:12.483Z,33.40
2023-01-29T06:01:40.088Z,37.67
2023-01-29T06:04:07.874Z,32.60
2023-01-29T06:06:35.507Z,33.00
2023-01-29T06:09:04.759Z,31.87
2023-01-29T06:11:32.427Z,33.87
2023-01-29T06:14:00.040Z,36.60
2023-01-29T06:16:27.750Z,33.10
2023-01-29T06:18:55.422Z,34.17
2023-01-29T06:21:22.997Z,32.40
2023-01-29T06:23:52.915Z,35.10
2023-01-29T06:26:21.943Z,32.90
2023-01-29T06:31:37.855Z,33.67
2023-01-29T06:34:06.302Z,32.92
2023-01-29T06:36:33.935Z,34.10
2023-01-29T06:39:01.647Z,37.43
2023-01-29T06:41:30.696Z,35.07
2023-01-29T06:43:58.357Z,32.83
2023-01-29T06:46:26.121Z,36.37
2023-01-29T06:48:53.787Z,32.77
2023-01-29T06:51:22.950Z,35.97
2023-01-29T06:53:50.616Z,35.87
2023-01-29T06:56:18.251Z,34.00
2023-01-29T06:58:47.194Z,36.10
2023-01-29T07:04:02.856Z,31.20
2023-01-29T07:06:31.134Z,39.42
2023-01-29T07:08:58.778Z,32.17
2023-01-29T07:11:26.537Z,35.13
2023-01-29T07:13:55.545Z,33.00
2023-01-29T07:16:23.482Z,33.73
2023-01-29T07:18:51.159Z,33.28
2023-01-29T07:21:18.846Z,35.47
2023-01-29T07:23:46.483Z,35.90
2023-01-29T07:26:14.148Z,31.57
2023-01-29T07:28:42.123Z,30.43
2023-01-29T07:31:14.526Z,30.95
2023-01-29T07:33:44.206Z,32.33
2023-01-29T07:36:12.795Z,34.23
2023-01-29T07:38:40.470Z,32.08
2023-01-29T07:41:08.529Z,29.63
2023-01-29T07:43:36.138Z,30.05
2023-01-29T07:46:05.186Z,31.63
2023-01-29T07:48:34.236Z,34.07
2023-01-29T07:51:02.126Z,30.37
2023-01-29T07:53:29.851Z,30.53
2023-01-29T07:55:57.869Z,31.10
2023-01-29T07:58:25.603Z,32.08
2023-01-29T08:00:53.192Z,33.07
2023-01-29T08:03:21.493Z,31.97
2023-01-29T08:05:50.587Z,27.55
2023-01-29T08:08:19.272Z,30.73
2023-01-29T08:10:46.945Z,30.10
2023-01-29T08:13:14.621Z,29.50
2023-01-29T08:15:43.831Z,30.37
2023-01-29T08:18:11.493Z,28.40
2023-01-29T08:20:39.371Z,30.63
2023-01-29T08:23:13.557Z,32.13
2023-01-29T08:25:41.293Z,27.47
2023-01-29T08:28:09.746Z,32.77
2023-01-29T08:30:37.438Z,30.00
2023-01-29T08:33:05.438Z,35.77
2023-01-29T08:35:33.115Z,33.80
2023-01-29T08:38:03.212Z,30.67
2023-01-29T08:40:33.802Z,36.07
2023-01-29T08:43:02.737Z,32.13
2023-01-29T08:45:31.224Z,33.60
2023-01-29T08:47:58.823Z,29.00
2023-01-29T08:50:26.583Z,31.17
2023-01-29T08:52:58.856Z,33.13
2023-01-29T08:55:26.852Z,26.73
2023-01-29T08:57:57.328Z,27.88
2023-01-29T09:00:25.283Z,28.33
2023-01-29T09:02:53.078Z,27.87
2023-01-29T09:05:20.687Z,32.03
2023-01-29T09:07:48.360Z,28.90
2023-01-29T09:10:17.179Z,28.07
2023-01-29T09:12:44.734Z,28.13
2023-01-29T09:15:14.047Z,27.13
2023-01-29T09:17:43.033Z,27.30
2023-01-29T09:20:12.049Z,26.97
2023-01-29T09:22:39.663Z,30.67
2023-01-29T09:25:08.636Z,28.17
2023-01-29T09:27:36.286Z,26.90
2023-01-29T09:30:04.579Z,28.00
2023-01-29T09:32:53.688Z,28.73
2023-01-29T09:35:22.483Z,28.80
2023-01-29T09:37:50.148Z,27.35
2023-01-29T09:40:25.646Z,26.67
2023-01-29T09:42:59.028Z,30.93
2023-01-29T09:45:29.316Z,30.03
2023-01-29T09:48:01.425Z,29.30
2023-01-29T09:50:33.445Z,26.67
2023-01-29T09:53:06.147Z,29.23
2023-01-29T09:55:38.533Z,27.50
2023-01-29T09:58:13.009Z,26.60
2023-01-29T10:00:58.205Z,31.67
2023-01-29T10:03:45.026Z,29.67
2023-01-29T10:06:38.424Z,29.57
2023-01-29T10:09:38.759Z,28.87
2023-01-29T10:12:24.373Z,26.20
2023-01-29T10:15:01.320Z,26.33
2023-01-29T10:17:49.585Z,30.77
2023-01-29T10:20:35.164Z,30.20
2023-01-29T10:23:17.229Z,28.87
2023-01-29T10:25:47.842Z,30.00
2023-01-29T10:28:19.775Z,30.43
2023-01-29T10:30:51.108Z,28.03
2023-01-29T10:33:26.278Z,28.70
2023-01-29T10:35:59.492Z,31.80
2023-01-29T10:38:38.560Z,30.33
2023-01-29T10:41:23.576Z,32.10
2023-01-29T10:44:06.131Z,30.70
2023-01-29T10:46:48.752Z,31.33
2023-01-29T10:49:29.021Z,28.03
2023-01-29T10:52:11.238Z,29.97
2023-01-29T10:54:52.451Z,34.50
2023-01-29T10:57:31.738Z,31.40
2023-01-29T11:00:12.748Z,34.87
2023-01-29T11:02:45.804Z,40.60
2023-01-29T11:05:21.642Z,37.53
2023-01-29T11:08:00.926Z,34.20
2023-01-29T11:10:29.568Z,34.37
2023-01-29T11:12:58.610Z,35.83
2023-01-29T11:15:30.688Z,35.60
2023-01-29T11:18:13.687Z,35.97
2023-01-29T11:20:42.525Z,37.17
2023-01-29T11:25:55.165Z,36.40
2023-01-29T11:28:40.915Z,43.37
2023-01-29T11:31:20.684Z,39.03
2023-01-29T11:33:49.565Z,37.57
2023-01-29T11:39:21.393Z,42.40
2023-01-29T11:41:51.456Z,57.77
2023-01-29T11:44:28.811Z,37.33
2023-01-29T11:47:11.486Z,36.73
2023-01-29T11:49:42.795Z,37.23
2023-01-29T11:52:12.396Z,39.43
2023-01-29T11:54:48.089Z,43.20
2023-01-29T11:57:27.556Z,37.73
2023-01-29T11:59:58.106Z,42.53
2023-01-29T12:02:31.617Z,42.63
2023-01-29T12:05:03.729Z,40.97
2023-01-29T12:07:32.561Z,41.77
2023-01-29T12:12:36.233Z,41.53
2023-01-29T12:15:07.045Z,37.97
2023-01-29T12:17:39.159Z,40.50
2023-01-29T12:20:15.266Z,40.23
2023-01-29T12:22:51.551Z,36.90
2023-01-29T12:25:24.298Z,40.13
2023-01-29T12:28:00.915Z,34.73
2023-01-29T12:30:32.788Z,37.57
2023-01-29T12:33:07.241Z,41.30
2023-01-29T12:35:39.321Z,36.20
2023-01-29T12:38:21.659Z,40.67
2023-01-29T12:40:55.210Z,42.47
2023-01-29T12:43:28.601Z,39.20
2023-01-29T12:45:58.083Z,47.23
2023-01-29T12:48:29.481Z,38.57
2023-01-29T12:51:04.120Z,40.33
2023-01-29T12:53:36.144Z,39.90
2023-01-29T12:56:11.722Z,39.30
2023-01-29T12:58:44.350Z,40.37
2023-01-29T13:01:17.295Z,41.73
2023-01-29T13:03:51.689Z,36.50
2023-01-29T13:06:23.996Z,38.60
2023-01-29T13:08:54.850Z,34.80
2023-01-29T13:11:29.149Z,38.80
2023-01-29T13:14:02.155Z,40.30
2023-01-29T13:16:34.087Z,35.97
2023-01-29T13:19:04.744Z,35.67
2023-01-29T13:21:38.867Z,39.30
2023-01-29T13:24:14.017Z,42.87
2023-01-29T13:26:46.501Z,37.93
2023-01-29T13:29:23.654Z,39.17
2023-01-29T13:31:53.319Z,36.77
2023-01-29T13:34:25.741Z,39.37
2023-01-29T13:36:56.810Z,38.47
2023-01-29T13:39:28.575Z,36.37
2023-01-29T13:41:59.379Z,41.80
2023-01-29T13:44:29.333Z,35.50
2023-01-29T13:46:59.844Z,33.73
2023-01-29T13:49:36.324Z,39.40
2023-01-29T13:52:22.839Z,35.50
2023-01-29T13:54:57.192Z,35.83
2023-01-29T13:57:47.296Z,34.97
2023-01-29T14:00:57.010Z,36.07
2023-01-29T14:04:04.827Z,40.03
2023-01-29T14:06:57.505Z,32.92
2023-01-29T14:09:56.980Z,34.00
2023-01-29T14:12:37.379Z,34.23
2023-01-29T14:15:22.188Z,36.83
2023-01-29T14:18:05.698Z,35.53
2023-01-29T14:20:45.685Z,36.03
2023-01-29T14:23:25.063Z,35.47
2023-01-29T14:25:52.873Z,37.73
2023-01-29T14:28:25.577Z,38.10
2023-01-29T14:30:53.682Z,36.87
2023-01-29T14:33:33.941Z,36.08
2023-01-29T14:36:06.393Z,41.57
2023-01-29T14:38:34.841Z,47.33
2023-01-29T14:41:19.814Z,36.40
2023-01-29T14:43:48.939Z,39.60
2023-01-29T14:46:45.823Z,35.53
2023-01-29T14:49:13.532Z,41.40
2023-01-29T14:51:45.550Z,37.80
2023-01-29T14:54:26.295Z,35.20
2023-01-29T14:56:59.637Z,39.80
2023-01-29T14:59:34.951Z,34.90
2023-01-29T15:02:11.944Z,35.53
2023-01-29T15:04:45.536Z,34.33
2023-01-29T15:07:24.223Z,36.57
2023-01-29T15:10:13.256Z,38.05
2023-01-29T15:12:49.575Z,31.73
2023-01-29T15:15:27.441Z,36.83
2023-01-29T15:18:00.784Z,33.92
2023-01-29T15:20:33.944Z,37.50
2023-01-29T15:23:03.211Z,34.87
2023-01-29T15:25:36.973Z,35.03
2023-01-29T15:28:08.571Z,34.27
2023-01-29T15:30:39.165Z,32.70
2023-01-29T15:33:11.444Z,34.07
2023-01-29T15:35:41.834Z,36.80
2023-01-29T15:38:17.291Z,35.17
2023-01-29T15:40:53.293Z,37.80
2023-01-29T15:43:23.402Z,46.37
2023-01-29T15:45:54.619Z,41.80
2023-01-29T15:48:29.234Z,32.83
2023-01-29T15:50:57.875Z,35.97
2023-01-29T15:53:30.978Z,34.43
2023-01-29T15:56:00.016Z,31.37
2023-01-29T15:58:34.712Z,31.10
2023-01-29T16:01:04.798Z,35.13
2023-01-29T16:03:34.983Z,34.97
2023-01-29T16:06:03.362Z,32.57
2023-01-29T16:08:31.404Z,38.55
2023-01-29T16:11:01.729Z,40.03
2023-01-29T16:13:31.779Z,37.83
2023-01-29T16:16:01.498Z,40.20
2023-01-29T16:18:35.982Z,39.10
2023-01-29T16:21:08.755Z,36.13
2023-01-29T16:38:37.057Z,37.90
2023-01-29T16:41:15.783Z,40.63
2023-01-29T16:46:20.449Z,43.17
2023-01-29T16:48:48.543Z,36.13
2023-01-29T16:51:23.315Z,37.58
2023-01-29T16:53:58.008Z,40.33
2023-01-29T16:56:28.432Z,39.43
2023-01-29T16:58:56.659Z,39.37
2023-01-29T17:01:27.635Z,38.25
2023-01-29T17:04:01.694Z,35.50
2023-01-29T17:06:32.279Z,37.70
2023-01-29T17:09:01.928Z,37.60
2023-01-29T17:11:35.736Z,33.70
2023-01-29T17:14:04.053Z,41.57
2023-01-29T17:16:37.479Z,38.47
2023-01-29T17:19:17.748Z,37.00
2023-01-29T17:21:45.867Z,35.43
2023-01-29T17:24:15.009Z,37.92
2023-01-29T17:26:43.277Z,36.43
2023-01-29T17:29:15.419Z,41.70
2023-01-29T17:31:43.269Z,39.20
2023-01-29T17:34:14.375Z,41.85
2023-01-29T17:36:42.162Z,36.37
2023-01-29T17:39:19.376Z,37.13
2023-01-29T17:41:52.059Z,37.60
2023-01-29T17:44:19.696Z,35.07
2023-01-29T17:46:47.924Z,38.20
2023-01-29T17:49:23.485Z,37.13
2023-01-29T17:51:54.341Z,43.13
2023-01-29T17:54:25.496Z,40.33
2023-01-29T17:56:54.270Z,40.53
2023-01-29T18:01:50.943Z,39.05
2023-01-29T18:04:19.162Z,41.05
2023-01-29T18:06:50.061Z,45.38
2023-01-29T18:09:20.370Z,43.07
2023-01-29T18:11:50.629Z,46.30
2023-01-29T18:14:18.604Z,43.73
2023-01-29T18:16:46.649Z,43.97
2023-01-29T18:19:17.503Z,42.65
2023-01-29T18:21:45.192Z,38.87
2023-01-29T18:24:12.881Z,45.83
2023-01-29T18:26:40.542Z,39.93
2023-01-29T18:29:10.114Z,51.73
2023-01-29T18:31:37.924Z,46.03
2023-01-29T18:34:05.582Z,42.70
2023-01-29T18:36:33.272Z,42.93
2023-01-29T18:39:00.984Z,45.63
2023-01-29T18:41:28.653Z,47.83
2023-01-29T18:43:56.459Z,46.03
2023-01-29T18:46:25.470Z,44.13
2023-01-29T18:48:53.160Z,50.67
2023-01-29T18:51:20.804Z,46.83
2023-01-29T18:53:51.079Z,45.10
2023-01-29T18:56:19.257Z,43.70
2023-01-29T18:58:52.296Z,41.33
2023-01-29T19:01:23.471Z,43.40
2023-01-29T19:03:56.052Z,47.38
2023-01-29T19:06:23.680Z,50.73
2023-01-29T19:08:51.497Z,43.90
2023-01-29T19:11:19.260Z,41.78
2023-01-29T19:13:48.019Z,39.77
2023-01-29T19:16:15.818Z,43.17
2023-01-29T19:18:52.608Z,43.60
2023-01-29T19:21:21.598Z,42.87
2023-01-29T19:23:49.189Z,41.20
2023-01-29T19:26:17.355Z,36.27
2023-01-29T19:28:45.073Z,38.40
2023-01-29T19:31:12.809Z,36.03
2023-01-29T19:33:40.610Z,38.13
2023-01-29T19:36:08.895Z,34.57
2023-01-29T19:38:38.820Z,43.97
2023-01-29T19:41:06.633Z,44.90
2023-01-29T19:43:34.475Z,40.63
2023-01-29T19:46:02.869Z,42.20
2023-01-29T19:48:30.627Z,49.33
2023-01-29T19:51:00.051Z,67.13
2023-01-29T19:53:31.553Z,45.77
2023-01-29T19:56:12.729Z,50.27
2023-01-29T19:58:40.436Z,47.43
2023-01-29T20:01:16.053Z,44.77
2023-01-29T20:03:46.478Z,40.50
2023-01-29T20:06:15.399Z,37.00
2023-01-29T20:08:45.996Z,41.00
2023-01-29T20:11:15.454Z,41.73
2023-01-29T20:13:43.452Z,38.57
2023-01-29T20:16:11.125Z,40.78
2023-01-29T20:18:38.788Z,41.90
2023-01-29T20:21:09.489Z,40.10
2023-01-29T20:23:38.939Z,43.70
2023-01-29T20:26:09.037Z,49.57
2023-01-29T20:28:38.397Z,42.73
2023-01-29T20:31:06.811Z,44.23
2023-01-29T20:33:34.692Z,45.17
2023-01-29T20:36:04.417Z,41.97
2023-01-29T20:38:34.531Z,43.67
2023-01-29T20:41:06.523Z,39.63
2023-01-29T20:43:34.687Z,44.57
2023-01-29T20:46:04.074Z,48.47
2023-01-29T20:48:32.334Z,46.60
2023-01-29T20:51:09.364Z,43.15
2023-01-29T20:53:37.829Z,43.43
2023-01-29T20:56:06.376Z,51.15
2023-01-29T20:58:34.513Z,48.67
2023-01-29T21:01:08.324Z,45.67
2023-01-29T21:03:43.908Z,47.63
2023-01-29T21:06:12.365Z,44.73
2023-01-29T21:08:40.915Z,48.15
2023-01-29T21:11:10.093Z,54.83
2023-01-29T21:13:38.238Z,47.90
2023-01-29T21:16:10.602Z,50.28
2023-01-29T21:18:38.523Z,49.50
2023-01-29T21:21:06.623Z,48.65
2023-01-29T21:23:34.275Z,50.05
2023-01-29T21:26:03.602Z,55.40
2023-01-29T21:28:31.467Z,47.70
2023-01-29T21:31:10.015Z,47.43
2023-01-29T21:33:38.050Z,45.92
2023-01-29T21:36:06.847Z,49.67
2023-01-29T21:38:34.488Z,48.42
2023-01-29T21:41:03.003Z,55.80
2023-01-29T21:43:29.673Z,48.70
2023-01-29T21:45:57.839Z,53.43
2023-01-29T21:48:27.293Z,47.15
2023-01-29T21:50:54.925Z,50.30
2023-01-29T21:53:22.708Z,54.43
2023-01-29T21:55:50.368Z,48.40
2023-01-29T21:58:19.837Z,52.87
2023-01-29T22:00:49.571Z,54.87
2023-01-29T22:03:17.591Z,54.27
2023-01-29T22:05:46.540Z,48.70
2023-01-29T22:08:14.872Z,50.00
2023-01-29T22:10:42.629Z,52.58
2023-01-29T22:13:10.300Z,57.87
2023-01-29T22:15:37.984Z,52.00
2023-01-29T22:18:06.086Z,51.37
2023-01-29T22:20:33.814Z,54.08
2023-01-29T22:23:05.211Z,52.97
2023-01-29T22:25:33.494Z,50.63
2023-01-29T22:28:01.113Z,50.92
2023-01-29T22:30:28.895Z,52.30
2023-01-29T22:32:56.554Z,52.37
2023-01-29T22:35:24.214Z,50.30
2023-01-29T22:37:51.941Z,56.93
2023-01-29T22:40:21.206Z,51.93
2023-01-29T22:42:48.905Z,60.07
2023-01-29T22:45:16.814Z,51.33
2023-01-29T22:47:44.533Z,57.55
2023-01-29T22:50:13.293Z,48.40
2023-01-29T22:52:42.383Z,48.17
2023-01-29T22:55:11.937Z,50.67
2023-01-29T22:57:41.225Z,53.03
2023-01-29T23:00:12.320Z,52.00
2023-01-29T23:02:40.028Z,48.70
2023-01-29T23:05:08.697Z,52.57
2023-01-29T23:07:36.358Z,49.88
2023-01-29T23:10:04.326Z,48.17
2023-01-29T23:12:32.093Z,47.22
2023-01-29T23:15:01.080Z,48.63
2023-01-29T23:17:28.743Z,45.57
2023-01-29T23:19:56.391Z,45.97
2023-01-29T23:22:24.232Z,51.77
2023-01-29T23:24:52.040Z,51.23
2023-01-29T23:27:18.745Z,47.00
2023-01-29T23:29:48.304Z,45.23
2023-01-29T23:32:19.276Z,44.00
2023-01-29T23:34:47.050Z,50.43
2023-01-29T23:37:14.903Z,44.60
2023-01-29T23:39:42.581Z,46.92
2023-01-29T23:42:10.178Z,41.37
2023-01-29T23:44:37.832Z,43.37
2023-01-29T23:47:05.608Z,39.77
2023-01-29T23:49:34.652Z,39.50
2023-01-29T23:52:02.280Z,38.67
2023-01-29T23:54:30.179Z,37.90
2023-01-29T23:56:57.874Z,34.45
2023-01-29T23:59:28.065Z,36.77
